sensor_id;sensor_type;location;lat;lon;timestamp;P1;durP1;ratioP1;P2;durP2;ratioP2
479;SDS011;226;48.606;9.096;2022-08-30T00:00:20;8.77;;;5.13;;
479;SDS011;226;48.606;9.096;2022-08-30T00:03:08;10.60;;;5.50;;
479;SDS011;226;48.606;9.096;2022-08-30T00:05:40;7.43;;;4.20;;
479;SDS011;226;48.606;9.096;2022-08-30T00:08:09;7.60;;;4.80;;
479;SDS011;226;48.606;9.096;2022-08-30T00:10:39;11.57;;;4.67;;
479;SDS011;226;48.606;9.096;2022-08-30T00:13:08;8.27;;;4.20;;
479;SDS011;226;48.606;9.096;2022-08-30T00:15:37;11.87;;;4.53;;
479;SDS011;226;48.606;9.096;2022-08-30T00:18:07;7.63;;;4.30;;
479;SDS011;226;48.606;9.096;2022-08-30T00:20:36;13.47;;;7.40;;
479;SDS011;226;48.606;9.096;2022-08-30T00:23:04;10.60;;;5.20;;
479;SDS011;226;48.606;9.096;2022-08-30T00:25:32;12.17;;;5.90;;
479;SDS011;226;48.606;9.096;2022-08-30T00:28:01;10.97;;;5.50;;
479;SDS011;226;48.606;9.096;2022-08-30T00:30:29;8.07;;;5.13;;
479;SDS011;226;48.606;9.096;2022-08-30T00:32:57;18.03;;;5.47;;
479;SDS011;226;48.606;9.096;2022-08-30T00:35:26;10.80;;;5.10;;
479;SDS011;226;48.606;9.096;2022-08-30T00:37:55;12.83;;;6.03;;
479;SDS011;226;48.606;9.096;2022-08-30T00:40:23;10.07;;;5.90;;
479;SDS011;226;48.606;9.096;2022-08-30T00:42:54;6.70;;;4.10;;
479;SDS011;226;48.606;9.096;2022-08-30T00:45:25;12.10;;;5.50;;
479;SDS011;226;48.606;9.096;2022-08-30T00:47:55;33.63;;;6.70;;
479;SDS011;226;48.606;9.096;2022-08-30T00:50:25;14.93;;;5.63;;
479;SDS011;226;48.606;9.096;2022-08-30T00:52:59;11.93;;;5.23;;
479;SDS011;226;48.606;9.096;2022-08-30T00:55:30;9.80;;;5.20;;
479;SDS011;226;48.606;9.096;2022-08-30T00:57:59;11.30;;;4.70;;
479;SDS011;226;48.606;9.096;2022-08-30T01:00:30;9.27;;;4.90;;
479;SDS011;226;48.606;9.096;2022-08-30T01:02:58;7.17;;;4.60;;
479;SDS011;226;48.606;9.096;2022-08-30T01:05:28;12.40;;;5.10;;
479;SDS011;226;48.606;9.096;2022-08-30T01:07:56;4.93;;;4.00;;
479;SDS011;226;48.606;9.096;2022-08-30T01:10:24;5.10;;;4.47;;
479;SDS011;226;48.606;9.096;2022-08-30T01:12:52;7.00;;;4.13;;
479;SDS011;226;48.606;9.096;2022-08-30T01:15:20;11.00;;;5.70;;
479;SDS011;226;48.606;9.096;2022-08-30T01:17:49;11.13;;;6.40;;
479;SDS011;226;48.606;9.096;2022-08-30T01:20:19;12.50;;;5.03;;
479;SDS011;226;48.606;9.096;2022-08-30T01:23:00;16.37;;;5.10;;
479;SDS011;226;48.606;9.096;2022-08-30T01:25:33;11.50;;;5.73;;
479;SDS011;226;48.606;9.096;2022-08-30T01:28:03;6.47;;;4.77;;
479;SDS011;226;48.606;9.096;2022-08-30T01:30:37;8.70;;;5.60;;
479;SDS011;226;48.606;9.096;2022-08-30T01:33:08;9.57;;;4.83;;
479;SDS011;226;48.606;9.096;2022-08-30T01:35:41;9.67;;;5.47;;
479;SDS011;226;48.606;9.096;2022-08-30T01:38:13;12.60;;;5.40;;
479;SDS011;226;48.606;9.096;2022-08-30T01:40:43;10.90;;;5.57;;
479;SDS011;226;48.606;9.096;2022-08-30T01:43:11;7.23;;;4.53;;
479;SDS011;226;48.606;9.096;2022-08-30T01:45:41;9.03;;;5.50;;
479;SDS011;226;48.606;9.096;2022-08-30T01:48:09;5.10;;;3.63;;
479;SDS011;226;48.606;9.096;2022-08-30T01:50:38;19.30;;;4.30;;
479;SDS011;226;48.606;9.096;2022-08-30T01:53:07;8.97;;;4.60;;
479;SDS011;226;48.606;9.096;2022-08-30T01:55:41;6.13;;;5.00;;
479;SDS011;226;48.606;9.096;2022-08-30T01:58:09;12.17;;;5.50;;
479;SDS011;226;48.606;9.096;2022-08-30T02:00:38;9.10;;;5.67;;
479;SDS011;226;48.606;9.096;2022-08-30T02:03:06;6.40;;;5.03;;
479;SDS011;226;48.606;9.096;2022-08-30T02:05:34;9.47;;;4.10;;
479;SDS011;226;48.606;9.096;2022-08-30T02:08:02;10.93;;;6.20;;
479;SDS011;226;48.606;9.096;2022-08-30T02:10:30;8.53;;;4.97;;
479;SDS011;226;48.606;9.096;2022-08-30T02:13:00;7.37;;;4.63;;
479;SDS011;226;48.606;9.096;2022-08-30T02:15:29;17.33;;;6.93;;
479;SDS011;226;48.606;9.096;2022-08-30T02:18:06;9.80;;;5.00;;
479;SDS011;226;48.606;9.096;2022-08-30T02:20:36;7.40;;;4.97;;
479;SDS011;226;48.606;9.096;2022-08-30T02:23:06;9.33;;;5.00;;
479;SDS011;226;48.606;9.096;2022-08-30T02:25:34;8.83;;;4.50;;
479;SDS011;226;48.606;9.096;2022-08-30T02:28:04;7.00;;;4.10;;
479;SDS011;226;48.606;9.096;2022-08-30T02:30:33;14.50;;;6.07;;
479;SDS011;226;48.606;9.096;2022-08-30T02:33:02;6.90;;;4.30;;
479;SDS011;226;48.606;9.096;2022-08-30T02:35:30;8.33;;;4.90;;
479;SDS011;226;48.606;9.096;2022-08-30T02:37:58;13.43;;;4.93;;
479;SDS011;226;48.606;9.096;2022-08-30T02:40:26;6.83;;;4.27;;
479;SDS011;226;48.606;9.096;2022-08-30T02:42:54;12.43;;;6.23;;
479;SDS011;226;48.606;9.096;2022-08-30T02:45:25;9.73;;;4.63;;
479;SDS011;226;48.606;9.096;2022-08-30T02:47:53;12.10;;;5.63;;
479;SDS011;226;48.606;9.096;2022-08-30T02:50:22;8.93;;;5.20;;
479;SDS011;226;48.606;9.096;2022-08-30T02:52:50;14.77;;;6.43;;
479;SDS011;226;48.606;9.096;2022-08-30T02:55:20;10.60;;;5.40;;
479;SDS011;226;48.606;9.096;2022-08-30T02:57:49;9.80;;;4.90;;
479;SDS011;226;48.606;9.096;2022-08-30T03:00:18;11.10;;;6.03;;
479;SDS011;226;48.606;9.096;2022-08-30T03:02:48;9.87;;;5.57;;
479;SDS011;226;48.606;9.096;2022-08-30T03:05:16;6.03;;;4.27;;
479;SDS011;226;48.606;9.096;2022-08-30T03:07:45;11.77;;;5.00;;
479;SDS011;226;48.606;9.096;2022-08-30T03:10:14;9.90;;;4.97;;
479;SDS011;226;48.606;9.096;2022-08-30T03:12:43;9.67;;;5.73;;
479;SDS011;226;48.606;9.096;2022-08-30T03:15:13;9.43;;;4.30;;
479;SDS011;226;48.606;9.096;2022-08-30T03:17:42;9.13;;;5.97;;
479;SDS011;226;48.606;9.096;2022-08-30T03:20:11;7.57;;;5.27;;
479;SDS011;226;48.606;9.096;2022-08-30T03:22:39;8.43;;;5.43;;
479;SDS011;226;48.606;9.096;2022-08-30T03:25:07;12.43;;;6.20;;
479;SDS011;226;48.606;9.096;2022-08-30T03:27:36;9.63;;;5.17;;
479;SDS011;226;48.606;9.096;2022-08-30T03:30:04;11.70;;;6.20;;
479;SDS011;226;48.606;9.096;2022-08-30T03:32:33;9.20;;;6.20;;
479;SDS011;226;48.606;9.096;2022-08-30T03:35:02;15.30;;;6.67;;
479;SDS011;226;48.606;9.096;2022-08-30T03:37:32;10.43;;;5.03;;
479;SDS011;226;48.606;9.096;2022-08-30T03:40:01;13.30;;;5.40;;
479;SDS011;226;48.606;9.096;2022-08-30T03:42:31;10.80;;;5.00;;
479;SDS011;226;48.606;9.096;2022-08-30T03:44:59;11.07;;;5.20;;
479;SDS011;226;48.606;9.096;2022-08-30T03:47:27;9.57;;;4.70;;
479;SDS011;226;48.606;9.096;2022-08-30T03:49:55;9.57;;;5.47;;
479;SDS011;226;48.606;9.096;2022-08-30T03:52:25;10.93;;;5.60;;
479;SDS011;226;48.606;9.096;2022-08-30T03:54:54;9.27;;;5.47;;
479;SDS011;226;48.606;9.096;2022-08-30T03:57:22;7.43;;;3.83;;
479;SDS011;226;48.606;9.096;2022-08-30T03:59:50;10.37;;;4.60;;
479;SDS011;226;48.606;9.096;2022-08-30T04:02:18;9.30;;;5.73;;
479;SDS011;226;48.606;9.096;2022-08-30T04:04:48;9.20;;;5.33;;
479;SDS011;226;48.606;9.096;2022-08-30T04:07:16;11.70;;;5.87;;
479;SDS011;226;48.606;9.096;2022-08-30T04:09:45;6.83;;;5.43;;
479;SDS011;226;48.606;9.096;2022-08-30T04:12:15;12.17;;;6.47;;
479;SDS011;226;48.606;9.096;2022-08-30T04:14:48;11.80;;;6.07;;
479;SDS011;226;48.606;9.096;2022-08-30T04:17:16;14.87;;;6.60;;
479;SDS011;226;48.606;9.096;2022-08-30T04:19:44;12.93;;;6.23;;
479;SDS011;226;48.606;9.096;2022-08-30T04:22:12;11.20;;;5.77;;
479;SDS011;226;48.606;9.096;2022-08-30T04:24:40;9.53;;;4.77;;
479;SDS011;226;48.606;9.096;2022-08-30T04:27:08;12.30;;;5.20;;
479;SDS011;226;48.606;9.096;2022-08-30T04:29:38;12.60;;;5.77;;
479;SDS011;226;48.606;9.096;2022-08-30T04:32:06;8.80;;;5.10;;
479;SDS011;226;48.606;9.096;2022-08-30T04:34:34;10.47;;;4.87;;
479;SDS011;226;48.606;9.096;2022-08-30T04:37:02;6.30;;;4.03;;
479;SDS011;226;48.606;9.096;2022-08-30T04:39:30;8.83;;;5.00;;
479;SDS011;226;48.606;9.096;2022-08-30T04:41:58;11.33;;;5.00;;
479;SDS011;226;48.606;9.096;2022-08-30T04:44:28;13.83;;;4.97;;
479;SDS011;226;48.606;9.096;2022-08-30T04:46:59;9.50;;;6.00;;
479;SDS011;226;48.606;9.096;2022-08-30T04:49:27;6.23;;;4.43;;
479;SDS011;226;48.606;9.096;2022-08-30T04:51:57;12.20;;;6.30;;
479;SDS011;226;48.606;9.096;2022-08-30T04:54:25;9.90;;;5.40;;
479;SDS011;226;48.606;9.096;2022-08-30T04:56:53;8.73;;;5.47;;
479;SDS011;226;48.606;9.096;2022-08-30T04:59:21;9.83;;;5.70;;
479;SDS011;226;48.606;9.096;2022-08-30T05:01:49;13.40;;;5.77;;
479;SDS011;226;48.606;9.096;2022-08-30T05:04:19;11.57;;;5.70;;
479;SDS011;226;48.606;9.096;2022-08-30T05:06:47;12.13;;;6.30;;
479;SDS011;226;48.606;9.096;2022-08-30T05:09:15;9.53;;;5.07;;
479;SDS011;226;48.606;9.096;2022-08-30T05:11:43;11.33;;;6.03;;
479;SDS011;226;48.606;9.096;2022-08-30T05:14:11;11.27;;;6.57;;
479;SDS011;226;48.606;9.096;2022-08-30T05:16:40;10.80;;;5.00;;
479;SDS011;226;48.606;9.096;2022-08-30T05:19:08;13.17;;;6.57;;
479;SDS011;226;48.606;9.096;2022-08-30T05:21:37;10.73;;;5.83;;
479;SDS011;226;48.606;9.096;2022-08-30T05:24:06;15.23;;;6.10;;
479;SDS011;226;48.606;9.096;2022-08-30T05:26:36;9.57;;;5.00;;
479;SDS011;226;48.606;9.096;2022-08-30T05:29:04;9.43;;;5.80;;
479;SDS011;226;48.606;9.096;2022-08-30T05:31:34;10.53;;;6.20;;
479;SDS011;226;48.606;9.096;2022-08-30T05:34:03;19.47;;;6.80;;
479;SDS011;226;48.606;9.096;2022-08-30T05:36:33;8.87;;;5.90;;
479;SDS011;226;48.606;9.096;2022-08-30T05:39:03;9.20;;;5.03;;
479;SDS011;226;48.606;9.096;2022-08-30T05:41:34;8.03;;;5.40;;
479;SDS011;226;48.606;9.096;2022-08-30T05:44:04;14.50;;;6.57;;
479;SDS011;226;48.606;9.096;2022-08-30T05:46:33;9.80;;;5.80;;
479;SDS011;226;48.606;9.096;2022-08-30T05:49:02;10.00;;;5.03;;
479;SDS011;226;48.606;9.096;2022-08-30T05:51:32;16.60;;;6.10;;
479;SDS011;226;48.606;9.096;2022-08-30T05:54:10;11.90;;;5.33;;
479;SDS011;226;48.606;9.096;2022-08-30T05:56:39;10.67;;;5.93;;
479;SDS011;226;48.606;9.096;2022-08-30T05:59:09;10.43;;;5.30;;
479;SDS011;226;48.606;9.096;2022-08-30T06:01:39;10.40;;;5.63;;
479;SDS011;226;48.606;9.096;2022-08-30T06:04:09;12.57;;;6.00;;
479;SDS011;226;48.606;9.096;2022-08-30T06:06:39;11.70;;;6.00;;
479;SDS011;226;48.606;9.096;2022-08-30T06:09:10;8.93;;;5.30;;
479;SDS011;226;48.606;9.096;2022-08-30T06:11:39;11.43;;;6.00;;
479;SDS011;226;48.606;9.096;2022-08-30T06:14:07;11.00;;;4.90;;
479;SDS011;226;48.606;9.096;2022-08-30T06:16:36;7.27;;;4.50;;
479;SDS011;226;48.606;9.096;2022-08-30T06:19:05;11.63;;;5.97;;
479;SDS011;226;48.606;9.096;2022-08-30T06:21:36;17.73;;;6.27;;
479;SDS011;226;48.606;9.096;2022-08-30T06:24:06;14.93;;;7.17;;
479;SDS011;226;48.606;9.096;2022-08-30T06:26:37;8.53;;;5.53;;
479;SDS011;226;48.606;9.096;2022-08-30T06:29:08;10.17;;;5.13;;
479;SDS011;226;48.606;9.096;2022-08-30T06:31:36;9.37;;;5.43;;
479;SDS011;226;48.606;9.096;2022-08-30T06:34:04;9.97;;;5.40;;
479;SDS011;226;48.606;9.096;2022-08-30T06:36:33;8.73;;;5.00;;
479;SDS011;226;48.606;9.096;2022-08-30T06:39:01;22.47;;;5.17;;
479;SDS011;226;48.606;9.096;2022-08-30T06:41:30;14.13;;;5.43;;
479;SDS011;226;48.606;9.096;2022-08-30T06:44:02;10.43;;;4.97;;
479;SDS011;226;48.606;9.096;2022-08-30T06:46:32;12.67;;;5.70;;
479;SDS011;226;48.606;9.096;2022-08-30T06:49:03;13.27;;;6.30;;
479;SDS011;226;48.606;9.096;2022-08-30T06:51:33;13.83;;;5.00;;
479;SDS011;226;48.606;9.096;2022-08-30T06:54:04;10.60;;;6.00;;
479;SDS011;226;48.606;9.096;2022-08-30T06:56:37;8.73;;;5.30;;
479;SDS011;226;48.606;9.096;2022-08-30T06:59:24;13.13;;;7.00;;
479;SDS011;226;48.606;9.096;2022-08-30T07:01:52;11.70;;;6.73;;
479;SDS011;226;48.606;9.096;2022-08-30T07:04:21;11.93;;;6.10;;
479;SDS011;226;48.606;9.096;2022-08-30T07:06:49;10.97;;;5.87;;
479;SDS011;226;48.606;9.096;2022-08-30T07:09:18;11.77;;;5.30;;
479;SDS011;226;48.606;9.096;2022-08-30T07:11:48;7.70;;;5.00;;
479;SDS011;226;48.606;9.096;2022-08-30T07:14:17;10.40;;;4.67;;
479;SDS011;226;48.606;9.096;2022-08-30T07:16:47;12.23;;;7.10;;
479;SDS011;226;48.606;9.096;2022-08-30T07:19:17;9.80;;;5.77;;
479;SDS011;226;48.606;9.096;2022-08-30T07:21:46;13.27;;;6.17;;
479;SDS011;226;48.606;9.096;2022-08-30T07:24:15;7.13;;;5.13;;
479;SDS011;226;48.606;9.096;2022-08-30T07:26:44;8.70;;;4.57;;
479;SDS011;226;48.606;9.096;2022-08-30T07:29:15;12.40;;;6.37;;
479;SDS011;226;48.606;9.096;2022-08-30T07:31:44;8.70;;;5.47;;
479;SDS011;226;48.606;9.096;2022-08-30T07:34:13;10.73;;;5.80;;
479;SDS011;226;48.606;9.096;2022-08-30T07:36:41;11.83;;;5.33;;
479;SDS011;226;48.606;9.096;2022-08-30T07:39:09;8.53;;;4.70;;
479;SDS011;226;48.606;9.096;2022-08-30T07:41:37;9.57;;;4.20;;
479;SDS011;226;48.606;9.096;2022-08-30T07:44:06;9.10;;;5.57;;
479;SDS011;226;48.606;9.096;2022-08-30T07:46:35;6.90;;;4.80;;
479;SDS011;226;48.606;9.096;2022-08-30T07:49:04;8.20;;;4.63;;
479;SDS011;226;48.606;9.096;2022-08-30T07:51:38;8.27;;;4.60;;
479;SDS011;226;48.606;9.096;2022-08-30T07:54:06;7.70;;;5.53;;
479;SDS011;226;48.606;9.096;2022-08-30T07:56:34;11.90;;;5.07;;
479;SDS011;226;48.606;9.096;2022-08-30T07:59:03;8.17;;;5.23;;
479;SDS011;226;48.606;9.096;2022-08-30T08:01:31;8.60;;;4.20;;
479;SDS011;226;48.606;9.096;2022-08-30T08:03:59;10.03;;;4.83;;
479;SDS011;226;48.606;9.096;2022-08-30T08:06:27;11.00;;;5.10;;
479;SDS011;226;48.606;9.096;2022-08-30T08:09:01;6.50;;;4.30;;
479;SDS011;226;48.606;9.096;2022-08-30T08:11:30;6.90;;;4.20;;
479;SDS011;226;48.606;9.096;2022-08-30T08:13:59;6.27;;;4.57;;
479;SDS011;226;48.606;9.096;2022-08-30T08:16:29;12.20;;;6.13;;
479;SDS011;226;48.606;9.096;2022-08-30T08:18:59;6.07;;;4.70;;
479;SDS011;226;48.606;9.096;2022-08-30T08:21:27;11.40;;;5.63;;
479;SDS011;226;48.606;9.096;2022-08-30T08:23:55;9.23;;;5.37;;
479;SDS011;226;48.606;9.096;2022-08-30T08:26:24;8.80;;;4.90;;
479;SDS011;226;48.606;9.096;2022-08-30T08:28:52;8.17;;;5.03;;
479;SDS011;226;48.606;9.096;2022-08-30T08:31:21;6.57;;;4.37;;
479;SDS011;226;48.606;9.096;2022-08-30T08:33:58;8.90;;;4.57;;
479;SDS011;226;48.606;9.096;2022-08-30T08:36:28;9.87;;;4.70;;
479;SDS011;226;48.606;9.096;2022-08-30T08:38:57;10.00;;;5.17;;
479;SDS011;226;48.606;9.096;2022-08-30T08:41:30;10.77;;;5.03;;
479;SDS011;226;48.606;9.096;2022-08-30T08:44:07;6.60;;;4.93;;
479;SDS011;226;48.606;9.096;2022-08-30T08:46:43;10.73;;;4.63;;
479;SDS011;226;48.606;9.096;2022-08-30T08:49:19;8.30;;;4.87;;
479;SDS011;226;48.606;9.096;2022-08-30T08:51:47;12.80;;;6.57;;
479;SDS011;226;48.606;9.096;2022-08-30T08:54:35;7.20;;;4.80;;
479;SDS011;226;48.606;9.096;2022-08-30T08:57:09;10.17;;;5.10;;
479;SDS011;226;48.606;9.096;2022-08-30T08:59:41;10.10;;;4.70;;
479;SDS011;226;48.606;9.096;2022-08-30T09:02:15;8.30;;;4.77;;
479;SDS011;226;48.606;9.096;2022-08-30T09:04:50;9.67;;;5.00;;
479;SDS011;226;48.606;9.096;2022-08-30T09:07:23;8.60;;;4.60;;
479;SDS011;226;48.606;9.096;2022-08-30T09:09:55;12.10;;;5.07;;
479;SDS011;226;48.606;9.096;2022-08-30T09:12:26;6.07;;;4.87;;
479;SDS011;226;48.606;9.096;2022-08-30T09:14:55;9.10;;;4.13;;
479;SDS011;226;48.606;9.096;2022-08-30T09:17:42;8.50;;;4.83;;
479;SDS011;226;48.606;9.096;2022-08-30T09:20:27;15.47;;;4.87;;
479;SDS011;226;48.606;9.096;2022-08-30T09:22:57;10.10;;;5.90;;
479;SDS011;226;48.606;9.096;2022-08-30T09:25:37;8.23;;;4.90;;
479;SDS011;226;48.606;9.096;2022-08-30T09:28:21;9.40;;;4.60;;
479;SDS011;226;48.606;9.096;2022-08-30T09:30:58;5.90;;;4.40;;
479;SDS011;226;48.606;9.096;2022-08-30T09:33:29;7.70;;;4.80;;
479;SDS011;226;48.606;9.096;2022-08-30T09:36:08;8.83;;;4.70;;
479;SDS011;226;48.606;9.096;2022-08-30T09:38:42;14.67;;;4.90;;
479;SDS011;226;48.606;9.096;2022-08-30T09:41:27;6.37;;;4.00;;
479;SDS011;226;48.606;9.096;2022-08-30T09:44:06;5.60;;;3.87;;
479;SDS011;226;48.606;9.096;2022-08-30T09:46:46;5.00;;;3.90;;
479;SDS011;226;48.606;9.096;2022-08-30T09:49:32;7.00;;;4.73;;
479;SDS011;226;48.606;9.096;2022-08-30T09:52:13;3.70;;;3.10;;
479;SDS011;226;48.606;9.096;2022-08-30T09:54:48;4.47;;;3.73;;
479;SDS011;226;48.606;9.096;2022-08-30T09:57:30;6.60;;;4.30;;
479;SDS011;226;48.606;9.096;2022-08-30T10:00:06;6.13;;;4.10;;
479;SDS011;226;48.606;9.096;2022-08-30T10:02:42;7.40;;;4.33;;
479;SDS011;226;48.606;9.096;2022-08-30T10:05:28;6.03;;;4.23;;
479;SDS011;226;48.606;9.096;2022-08-30T10:08:08;5.50;;;3.27;;
479;SDS011;226;48.606;9.096;2022-08-30T10:10:45;6.80;;;4.00;;
479;SDS011;226;48.606;9.096;2022-08-30T10:16:24;9.03;;;4.80;;
479;SDS011;226;48.606;9.096;2022-08-30T10:19:03;5.60;;;3.70;;
479;SDS011;226;48.606;9.096;2022-08-30T10:21:42;4.67;;;3.60;;
479;SDS011;226;48.606;9.096;2022-08-30T10:24:15;3.90;;;3.37;;
479;SDS011;226;48.606;9.096;2022-08-30T10:26:46;5.10;;;3.90;;
479;SDS011;226;48.606;9.096;2022-08-30T10:29:21;4.47;;;3.43;;
479;SDS011;226;48.606;9.096;2022-08-30T10:31:57;5.00;;;3.63;;
479;SDS011;226;48.606;9.096;2022-08-30T10:34:30;3.27;;;2.97;;
479;SDS011;226;48.606;9.096;2022-08-30T10:37:02;5.30;;;3.00;;
479;SDS011;226;48.606;9.096;2022-08-30T10:39:36;6.27;;;3.50;;
479;SDS011;226;48.606;9.096;2022-08-30T10:42:10;4.40;;;2.90;;
479;SDS011;226;48.606;9.096;2022-08-30T10:44:44;4.70;;;3.30;;
479;SDS011;226;48.606;9.096;2022-08-30T10:47:20;6.27;;;3.43;;
479;SDS011;226;48.606;9.096;2022-08-30T10:49:56;6.00;;;3.77;;
479;SDS011;226;48.606;9.096;2022-08-30T10:52:32;5.40;;;3.20;;
479;SDS011;226;48.606;9.096;2022-08-30T10:55:05;5.63;;;3.63;;
479;SDS011;226;48.606;9.096;2022-08-30T10:57:36;4.67;;;3.17;;
479;SDS011;226;48.606;9.096;2022-08-30T11:00:09;4.40;;;3.23;;
479;SDS011;226;48.606;9.096;2022-08-30T11:02:59;6.70;;;4.30;;
479;SDS011;226;48.606;9.096;2022-08-30T11:05:57;3.10;;;2.70;;
479;SDS011;226;48.606;9.096;2022-08-30T11:08:40;6.70;;;3.57;;
479;SDS011;226;48.606;9.096;2022-08-30T11:11:16;6.60;;;3.90;;
479;SDS011;226;48.606;9.096;2022-08-30T11:13:47;7.30;;;4.10;;
479;SDS011;226;48.606;9.096;2022-08-30T11:16:32;6.13;;;3.97;;
479;SDS011;226;48.606;9.096;2022-08-30T11:19:03;4.70;;;3.07;;
479;SDS011;226;48.606;9.096;2022-08-30T11:21:46;11.87;;;3.80;;
479;SDS011;226;48.606;9.096;2022-08-30T11:24:17;4.90;;;3.30;;
479;SDS011;226;48.606;9.096;2022-08-30T11:26:51;6.63;;;3.23;;
479;SDS011;226;48.606;9.096;2022-08-30T11:29:30;7.30;;;3.73;;
479;SDS011;226;48.606;9.096;2022-08-30T11:32:17;5.27;;;3.67;;
479;SDS011;226;48.606;9.096;2022-08-30T11:34:56;5.00;;;2.90;;
479;SDS011;226;48.606;9.096;2022-08-30T11:37:30;6.23;;;3.37;;
479;SDS011;226;48.606;9.096;2022-08-30T11:40:03;4.27;;;2.93;;
479;SDS011;226;48.606;9.096;2022-08-30T11:42:43;3.67;;;2.90;;
479;SDS011;226;48.606;9.096;2022-08-30T11:51:34;3.60;;;2.73;;
479;SDS011;226;48.606;9.096;2022-08-30T11:54:35;3.53;;;2.60;;
479;SDS011;226;48.606;9.096;2022-08-30T11:57:15;4.10;;;3.40;;
479;SDS011;226;48.606;9.096;2022-08-30T11:59:52;3.73;;;3.10;;
479;SDS011;226;48.606;9.096;2022-08-30T12:02:48;7.73;;;3.20;;
479;SDS011;226;48.606;9.096;2022-08-30T12:17:24;3.57;;;3.23;;
479;SDS011;226;48.606;9.096;2022-08-30T12:20:42;3.50;;;3.10;;
479;SDS011;226;48.606;9.096;2022-08-30T12:23:18;5.40;;;3.40;;
479;SDS011;226;48.606;9.096;2022-08-30T12:25:49;3.47;;;3.10;;
479;SDS011;226;48.606;9.096;2022-08-30T12:28:22;3.53;;;2.70;;
479;SDS011;226;48.606;9.096;2022-08-30T12:30:51;3.73;;;2.67;;
479;SDS011;226;48.606;9.096;2022-08-30T12:33:24;4.53;;;3.10;;
479;SDS011;226;48.606;9.096;2022-08-30T12:35:55;6.57;;;3.77;;
479;SDS011;226;48.606;9.096;2022-08-30T12:38:24;4.10;;;3.13;;
479;SDS011;226;48.606;9.096;2022-08-30T12:41:00;4.80;;;3.03;;
479;SDS011;226;48.606;9.096;2022-08-30T12:43:32;3.93;;;2.50;;
479;SDS011;226;48.606;9.096;2022-08-30T12:46:08;3.53;;;3.23;;
479;SDS011;226;48.606;9.096;2022-08-30T12:48:37;3.47;;;3.17;;
479;SDS011;226;48.606;9.096;2022-08-30T12:51:07;3.93;;;3.00;;
479;SDS011;226;48.606;9.096;2022-08-30T12:53:51;4.33;;;3.10;;
479;SDS011;226;48.606;9.096;2022-08-30T12:56:43;3.43;;;3.03;;
479;SDS011;226;48.606;9.096;2022-08-30T13:02:05;4.07;;;3.30;;
479;SDS011;226;48.606;9.096;2022-08-30T13:04:46;3.67;;;2.70;;
479;SDS011;226;48.606;9.096;2022-08-30T13:07:25;5.33;;;2.80;;
479;SDS011;226;48.606;9.096;2022-08-30T13:09:59;4.20;;;2.97;;
479;SDS011;226;48.606;9.096;2022-08-30T13:12:29;3.57;;;2.83;;
479;SDS011;226;48.606;9.096;2022-08-30T13:15:11;3.03;;;2.83;;
479;SDS011;226;48.606;9.096;2022-08-30T13:17:41;3.50;;;3.20;;
479;SDS011;226;48.606;9.096;2022-08-30T13:20:20;4.53;;;3.00;;
479;SDS011;226;48.606;9.096;2022-08-30T13:23:00;3.97;;;3.23;;
479;SDS011;226;48.606;9.096;2022-08-30T13:25:28;5.47;;;3.47;;
479;SDS011;226;48.606;9.096;2022-08-30T13:27:59;5.63;;;3.43;;
479;SDS011;226;48.606;9.096;2022-08-30T13:30:28;3.80;;;3.40;;
479;SDS011;226;48.606;9.096;2022-08-30T13:32:57;5.50;;;3.53;;
479;SDS011;226;48.606;9.096;2022-08-30T13:35:27;3.70;;;3.17;;
479;SDS011;226;48.606;9.096;2022-08-30T13:37:56;4.30;;;3.00;;
479;SDS011;226;48.606;9.096;2022-08-30T13:40:25;3.20;;;2.40;;
479;SDS011;226;48.606;9.096;2022-08-30T13:42:53;4.33;;;2.73;;
479;SDS011;226;48.606;9.096;2022-08-30T13:45:25;3.30;;;2.97;;
479;SDS011;226;48.606;9.096;2022-08-30T13:48:09;3.80;;;2.87;;
479;SDS011;226;48.606;9.096;2022-08-30T13:50:39;3.67;;;2.50;;
479;SDS011;226;48.606;9.096;2022-08-30T13:53:08;4.73;;;2.60;;
479;SDS011;226;48.606;9.096;2022-08-30T13:55:37;3.83;;;2.67;;
479;SDS011;226;48.606;9.096;2022-08-30T13:58:07;3.90;;;2.83;;
479;SDS011;226;48.606;9.096;2022-08-30T14:00:40;4.67;;;2.90;;
479;SDS011;226;48.606;9.096;2022-08-30T14:03:08;3.33;;;2.63;;
479;SDS011;226;48.606;9.096;2022-08-30T14:05:37;2.67;;;2.47;;
479;SDS011;226;48.606;9.096;2022-08-30T14:08:16;4.27;;;3.40;;
479;SDS011;226;48.606;9.096;2022-08-30T14:11:05;2.97;;;2.40;;
479;SDS011;226;48.606;9.096;2022-08-30T14:13:34;4.83;;;3.20;;
479;SDS011;226;48.606;9.096;2022-08-30T14:16:05;4.57;;;3.37;;
479;SDS011;226;48.606;9.096;2022-08-30T14:18:54;3.63;;;3.20;;
479;SDS011;226;48.606;9.096;2022-08-30T14:21:23;5.47;;;3.30;;
479;SDS011;226;48.606;9.096;2022-08-30T14:23:51;2.60;;;2.37;;
479;SDS011;226;48.606;9.096;2022-08-30T14:26:23;3.30;;;3.00;;
479;SDS011;226;48.606;9.096;2022-08-30T14:28:57;3.83;;;3.00;;
479;SDS011;226;48.606;9.096;2022-08-30T14:31:27;3.30;;;3.00;;
479;SDS011;226;48.606;9.096;2022-08-30T14:33:59;3.30;;;2.80;;
479;SDS011;226;48.606;9.096;2022-08-30T14:36:28;5.23;;;2.90;;
479;SDS011;226;48.606;9.096;2022-08-30T14:38:57;4.23;;;2.57;;
479;SDS011;226;48.606;9.096;2022-08-30T14:41:25;2.70;;;2.50;;
479;SDS011;226;48.606;9.096;2022-08-30T14:43:54;6.97;;;2.93;;
479;SDS011;226;48.606;9.096;2022-08-30T14:46:22;1.90;;;1.80;;
479;SDS011;226;48.606;9.096;2022-08-30T14:48:53;3.45;;;2.85;;
479;SDS011;226;48.606;9.096;2022-08-30T14:51:22;2.77;;;2.40;;
479;SDS011;226;48.606;9.096;2022-08-30T14:53:50;3.47;;;2.80;;
479;SDS011;226;48.606;9.096;2022-08-30T14:56:19;6.20;;;3.57;;
479;SDS011;226;48.606;9.096;2022-08-30T14:58:51;4.57;;;2.53;;
479;SDS011;226;48.606;9.096;2022-08-30T15:01:19;3.63;;;3.10;;
479;SDS011;226;48.606;9.096;2022-08-30T15:03:48;3.23;;;2.40;;
479;SDS011;226;48.606;9.096;2022-08-30T15:06:19;2.87;;;2.50;;
479;SDS011;226;48.606;9.096;2022-08-30T15:08:51;3.23;;;2.50;;
479;SDS011;226;48.606;9.096;2022-08-30T15:11:20;3.70;;;2.87;;
479;SDS011;226;48.606;9.096;2022-08-30T15:13:49;5.27;;;2.90;;
479;SDS011;226;48.606;9.096;2022-08-30T15:16:19;3.17;;;2.40;;
479;SDS011;226;48.606;9.096;2022-08-30T15:18:49;4.17;;;3.00;;
479;SDS011;226;48.606;9.096;2022-08-30T15:21:22;4.93;;;2.80;;
479;SDS011;226;48.606;9.096;2022-08-30T15:23:51;2.77;;;2.57;;
479;SDS011;226;48.606;9.096;2022-08-30T15:26:20;3.13;;;2.50;;
479;SDS011;226;48.606;9.096;2022-08-30T15:28:49;3.43;;;2.70;;
479;SDS011;226;48.606;9.096;2022-08-30T15:31:18;3.53;;;3.00;;
479;SDS011;226;48.606;9.096;2022-08-30T15:33:48;3.50;;;2.50;;
479;SDS011;226;48.606;9.096;2022-08-30T15:36:16;3.60;;;2.67;;
479;SDS011;226;48.606;9.096;2022-08-30T15:38:46;2.70;;;2.13;;
479;SDS011;226;48.606;9.096;2022-08-30T15:41:14;3.83;;;2.70;;
479;SDS011;226;48.606;9.096;2022-08-30T15:43:43;4.63;;;2.80;;
479;SDS011;226;48.606;9.096;2022-08-30T15:46:15;3.70;;;2.57;;
479;SDS011;226;48.606;9.096;2022-08-30T15:48:44;6.30;;;3.00;;
479;SDS011;226;48.606;9.096;2022-08-30T15:51:13;3.30;;;2.63;;
479;SDS011;226;48.606;9.096;2022-08-30T15:53:43;4.13;;;2.67;;
479;SDS011;226;48.606;9.096;2022-08-30T15:56:13;3.63;;;2.83;;
479;SDS011;226;48.606;9.096;2022-08-30T15:58:41;8.10;;;3.80;;
479;SDS011;226;48.606;9.096;2022-08-30T16:01:10;5.50;;;3.30;;
479;SDS011;226;48.606;9.096;2022-08-30T16:03:39;9.17;;;3.93;;
479;SDS011;226;48.606;9.096;2022-08-30T16:06:11;4.10;;;3.20;;
479;SDS011;226;48.606;9.096;2022-08-30T16:08:40;4.60;;;2.50;;
479;SDS011;226;48.606;9.096;2022-08-30T16:11:13;8.40;;;3.70;;
479;SDS011;226;48.606;9.096;2022-08-30T16:13:42;3.90;;;2.87;;
479;SDS011;226;48.606;9.096;2022-08-30T16:16:16;4.00;;;2.80;;
479;SDS011;226;48.606;9.096;2022-08-30T16:18:46;8.43;;;3.30;;
479;SDS011;226;48.606;9.096;2022-08-30T16:21:19;3.70;;;3.20;;
479;SDS011;226;48.606;9.096;2022-08-30T16:23:48;3.50;;;2.60;;
479;SDS011;226;48.606;9.096;2022-08-30T16:26:19;2.90;;;2.70;;
479;SDS011;226;48.606;9.096;2022-08-30T16:28:48;5.70;;;2.90;;
479;SDS011;226;48.606;9.096;2022-08-30T16:31:16;5.67;;;3.70;;